Time;durP1;ratioP1;P1;durP2;ratioP2;P2;SDS_P1;SDS_P2;PMS_P1;PMS_P2;Temp;Humidity;BMP_temperature;BMP_pressure;BME280_temperature;BME280_humidity;BME280_pressure;Samples;Min_cycle;Max_cycle;Signal;HPM_P1;HPM_P2
2023/09/18 00:04:26;;;;;;;11.30;10.10;;;;;;;15.59;84.25;98919.57;225595;1279;138763;-74
2023/09/18 00:09:28;;;;;;;11.30;9.80;;;;;;;15.55;84.37;98922.59;225669;1279;138628;-74
2023/09/18 00:14:30;;;;;;;11.50;10.30;;;;;;;15.51;84.29;98913.16;225859;1279;24212;-74
2023/09/18 00:19:33;;;;;;;12.10;10.30;;;;;;;15.47;84.42;98914.50;226084;1278;138036;-74
2023/09/18 00:24:35;;;;;;;11.50;10.30;;;;;;;15.42;84.30;98911.64;226041;1272;138391;-74
2023/09/18 00:29:37;;;;;;;11.70;10.50;;;;;;;15.38;84.80;98910.64;226049;1272;138651;-73
2023/09/18 00:34:38;;;;;;;12.10;10.80;;;;;;;15.33;84.72;98907.40;226040;1275;139120;-74
2023/09/18 00:39:43;;;;;;;11.20;10.00;;;;;;;15.29;84.84;98906.19;226053;1276;138609;-74
2023/09/18 00:44:45;;;;;;;13.60;10.10;;;;;;;15.26;85.17;98907.66;225987;1276;138610;-74
2023/09/18 00:49:50;;;;;;;11.90;10.70;;;;;;;15.23;85.12;98910.05;226184;1272;25429;-74
2023/09/18 00:54:52;;;;;;;13.00;11.50;;;;;;;15.22;85.37;98899.98;226125;1275;138475;-74
2023/09/18 00:59:54;;;;;;;12.20;10.90;;;;;;;15.22;85.45;98895.88;226208;1275;138686;-73
2023/09/18 01:04:56;;;;;;;12.00;10.60;;;;;;;15.21;85.65;98895.27;226104;1275;138635;-74
2023/09/18 01:09:58;;;;;;;12.70;10.80;;;;;;;15.21;85.42;98896.05;225995;1275;138813;-74
2023/09/18 01:15:07;;;;;;;12.70;10.90;;;;;;;15.20;85.41;98893.97;226131;1272;138808;-74
2023/09/18 01:20:11;;;;;;;12.60;11.30;;;;;;;15.19;85.61;98891.27;226111;1279;22554;-74
2023/09/18 01:25:13;;;;;;;12.10;10.70;;;;;;;15.17;85.47;98889.27;226056;1272;139095;-74
2023/09/18 01:30:15;;;;;;;12.50;11.20;;;;;;;15.15;85.52;98890.55;226048;1275;138685;-74
2023/09/18 01:35:17;;;;;;;13.00;10.90;;;;;;;15.14;85.44;98899.77;225983;1277;139276;-74
2023/09/18 01:40:20;;;;;;;12.30;11.00;;;;;;;15.11;85.61;98898.90;225954;1276;214387;-74
2023/09/18 01:45:22;;;;;;;15.00;11.80;;;;;;;15.09;85.92;98903.17;226116;1275;138613;-74
2023/09/18 01:50:24;;;;;;;12.70;11.40;;;;;;;15.07;86.03;98898.48;226085;1278;22540;-74
2023/09/18 01:55:26;;;;;;;12.70;11.40;;;;;;;15.08;85.99;98896.23;226058;1275;138260;-74
2023/09/18 02:00:28;;;;;;;12.50;11.30;;;;;;;15.08;86.00;98895.00;226124;1275;138561;-74
2023/09/18 02:05:30;;;;;;;13.60;11.30;;;;;;;15.06;86.04;98892.99;226159;1278;138788;-74
2023/09/18 02:10:32;;;;;;;13.60;12.30;;;;;;;15.03;86.03;98891.61;226065;1272;138601;-74
2023/09/18 02:15:37;;;;;;;13.70;12.40;;;;;;;15.02;86.17;98892.44;225989;1278;138683;-74
2023/09/18 02:20:42;;;;;;;14.70;12.80;;;;;;;15.02;86.15;98886.74;225950;1278;138592;-75
2023/09/18 02:25:44;;;;;;;13.20;11.70;;;;;;;15.02;86.48;98881.46;226069;1276;22712;-74
2023/09/18 02:30:46;;;;;;;13.60;12.20;;;;;;;14.99;86.07;98874.45;226049;1275;138218;-74
2023/09/18 02:35:48;;;;;;;14.30;12.50;;;;;;;14.96;86.30;98872.23;226038;1278;138538;-74
2023/09/18 02:40:50;;;;;;;13.30;11.90;;;;;;;14.93;86.57;98872.23;226083;1272;139324;-74
2023/09/18 02:45:52;;;;;;;13.90;12.00;;;;;;;14.93;86.60;98872.73;226006;1276;138775;-74
2023/09/18 02:50:54;;;;;;;14.40;11.60;;;;;;;14.97;86.74;98867.14;225981;1278;139523;-74
2023/09/18 02:55:58;;;;;;;13.60;11.70;;;;;;;14.94;86.51;98863.55;226196;1278;22567;-74
2023/09/18 03:01:02;;;;;;;13.10;11.80;;;;;;;14.90;86.48;98862.55;225929;1276;138390;-75
2023/09/18 03:06:06;;;;;;;13.00;11.60;;;;;;;14.89;86.59;98860.60;226083;1275;138426;-74
2023/09/18 03:11:12;;;;;;;14.50;12.90;;;;;;;14.85;86.42;98858.96;226084;1273;138723;-75
2023/09/18 03:16:15;;;;;;;13.70;12.30;;;;;;;14.80;86.64;98856.02;226022;1275;139564;-74
2023/09/18 03:21:17;;;;;;;14.80;13.00;;;;;;;14.74;86.74;98844.71;226007;1275;138817;-74
2023/09/18 03:26:19;;;;;;;15.00;13.30;;;;;;;14.71;86.97;98839.48;226150;1279;22571;-75
2023/09/18 03:31:21;;;;;;;17.00;13.40;;;;;;;14.70;87.16;98840.55;226073;1278;138540;-74
2023/09/18 03:36:24;;;;;;;16.80;13.40;;;;;;;14.69;87.14;98842.58;226090;1269;139118;-74
2023/09/18 03:41:26;;;;;;;14.70;12.80;;;;;;;14.70;87.04;98839.24;226127;1275;138820;-74
2023/09/18 03:46:28;;;;;;;15.20;13.00;;;;;;;14.67;87.02;98836.02;226033;1275;138825;-74
2023/09/18 03:51:31;;;;;;;13.90;12.40;;;;;;;14.63;87.12;98836.35;225892;1278;138615;-74
2023/09/18 03:56:33;;;;;;;14.70;12.50;;;;;;;14.62;87.27;98831.36;226109;1277;25364;-75
2023/09/18 04:01:34;;;;;;;14.70;13.20;;;;;;;14.64;87.46;98830.91;226030;1275;138759;-75
2023/09/18 04:06:46;;;;;;;14.50;12.90;;;;;;;14.63;87.44;98828.61;225819;1277;138654;-75
2023/09/18 04:11:48;;;;;;;14.20;12.80;;;;;;;14.62;87.45;98825.84;225935;1275;138799;-74
2023/09/18 04:16:50;;;;;;;14.80;12.70;;;;;;;14.60;87.31;98822.66;226045;1275;138867;-75
2023/09/18 04:21:55;;;;;;;15.10;13.50;;;;;;;14.58;87.25;98822.54;225991;1275;138631;-73
2023/09/18 04:26:57;;;;;;;14.50;13.10;;;;;;;14.57;87.55;98815.58;225750;1270;138569;-75
2023/09/18 04:31:59;;;;;;;14.00;12.40;;;;;;;14.56;87.51;98816.65;225811;1262;22559;-74
2023/09/18 04:37:03;;;;;;;15.10;13.50;;;;;;;14.54;87.60;98813.10;225879;1275;138256;-74
2023/09/18 04:42:06;;;;;;;14.40;13.00;;;;;;;14.54;87.62;98813.36;225970;1275;138390;-74
2023/09/18 04:47:09;;;;;;;13.80;12.30;;;;;;;14.56;87.74;98809.21;225866;1278;138997;-74
2023/09/18 04:52:11;;;;;;;15.00;13.50;;;;;;;14.60;87.88;98800.60;225785;1278;138821;-75
2023/09/18 04:57:14;;;;;;;16.00;13.80;;;;;;;14.66;87.92;98801.19;225943;1279;138798;-75
2023/09/18 05:02:19;;;;;;;18.10;13.50;;;;;;;14.75;88.05;98800.42;225957;1278;22579;-75
2023/09/18 05:07:22;;;;;;;15.40;13.80;;;;;;;14.85;87.98;98802.25;225971;1275;138208;-74
2023/09/18 05:12:24;;;;;;;14.60;13.20;;;;;;;14.93;87.71;98798.85;225957;1280;140054;-75
2023/09/18 05:17:51;;;;;;;15.60;14.10;;;;;;;15.01;87.91;98795.30;225984;1278;138825;-75
2023/09/18 05:22:55;;;;;;;15.30;13.70;;;;;;;15.15;87.80;98784.73;225926;1280;138721;-74
2023/09/18 05:27:59;;;;;;;17.20;15.00;;;;;;;15.25;87.87;98778.09;225676;1276;139346;-74
2023/09/18 05:33:04;;;;;;;16.70;13.90;;;;;;;15.37;87.70;98779.09;225715;1256;139229;-75
2023/09/18 05:38:08;;;;;;;19.20;16.30;;;;;;;15.51;87.78;98778.58;225918;1280;22533;-74
2023/09/18 05:43:11;;;;;;;18.70;15.20;;;;;;;15.68;87.93;98779.59;225726;1276;138903;-74
2023/09/18 05:48:14;;;;;;;15.80;14.20;;;;;;;15.87;88.08;98773.17;225709;1278;138469;-74
2023/09/18 05:53:16;;;;;;;16.30;14.70;;;;;;;16.02;87.83;98760.11;225694;1269;138711;-75
2023/09/18 05:58:22;;;;;;;16.60;14.90;;;;;;;16.18;87.88;98764.46;225629;1262;138777;-74
2023/09/18 06:03:23;;;;;;;16.40;14.60;;;;;;;16.38;87.83;98761.55;224927;1261;138761;-74
2023/09/18 06:08:28;;;;;;;18.00;16.20;;;;;;;16.60;88.05;98755.91;225379;1261;24491;-73
2023/09/18 06:13:30;;;;;;;18.40;15.90;;;;;;;16.88;87.93;98752.64;225421;1267;139003;-74
2023/09/18 06:18:32;;;;;;;17.00;15.30;;;;;;;17.14;87.77;98746.44;225284;1262;138604;-74
2023/09/18 06:23:34;;;;;;;18.80;16.80;;;;;;;17.43;87.73;98745.36;225221;1260;138927;-75
2023/09/18 06:28:36;;;;;;;18.20;16.30;;;;;;;17.73;87.56;98749.30;225395;1262;139318;-75
2023/09/18 06:33:38;;;;;;;18.10;15.90;;;;;;;18.03;87.24;98746.66;225128;1272;138715;-75
2023/09/18 06:38:40;;;;;;;16.50;14.30;;;;;;;18.28;86.81;98747.63;225098;1264;138672;-75
2023/09/18 06:43:42;;;;;;;17.10;15.30;;;;;;;18.55;86.71;98746.88;225307;1273;22551;-75
2023/09/18 06:48:45;;;;;;;16.80;15.20;;;;;;;18.85;86.38;98743.02;225318;1267;138234;-76
2023/09/18 06:53:47;;;;;;;15.60;14.10;;;;;;;19.14;86.07;98741.19;225206;1260;138618;-75
2023/09/18 06:58:51;;;;;;;15.50;13.70;;;;;;;19.46;85.56;98741.73;225445;1259;138580;-75
2023/09/18 07:03:54;;;;;;;17.00;13.80;;;;;;;19.80;84.64;98742.23;225297;1267;138621;-75
2023/09/18 07:08:56;;;;;;;14.10;12.80;;;;;;;20.11;83.72;98734.56;225377;1266;138746;-75
2023/09/18 07:13:58;;;;;;;15.10;13.00;;;;;;;20.38;82.86;98733.65;225518;1266;22603;-75
2023/09/18 07:19:01;;;;;;;14.10;12.70;;;;;;;20.64;82.11;98740.54;225595;1272;137941;-75
2023/09/18 07:24:03;;;;;;;14.10;12.70;;;;;;;20.90;81.51;98729.36;225485;1259;138598;-76
2023/09/18 07:29:05;;;;;;;15.10;13.20;;;;;;;21.12;80.67;98724.83;225278;1266;138827;-75
2023/09/18 07:34:07;;;;;;;13.30;12.10;;;;;;;21.34;80.06;98719.94;225332;1262;138619;-76
2023/09/18 07:39:12;;;;;;;14.40;12.80;;;;;;;21.57;79.48;98718.64;225503;1264;138587;-76
2023/09/18 07:44:21;;;;;;;13.90;12.60;;;;;;;21.81;78.84;98713.33;225382;1264;22551;-76
2023/09/18 07:49:23;;;;;;;14.10;12.90;;;;;;;22.06;78.43;98708.70;225192;1259;139233;-76
2023/09/18 07:54:25;;;;;;;15.70;14.20;;;;;;;22.30;77.73;98702.92;225306;1272;138525;-75
2023/09/18 07:59:27;;;;;;;14.10;12.50;;;;;;;22.49;77.00;98704.13;225447;1263;138784;-75
2023/09/18 08:04:32;;;;;;;14.30;13.10;;;;;;;22.69;76.49;98705.78;225095;1263;138658;-75
2023/09/18 08:09:37;;;;;;;14.10;12.80;;;;;;;22.87;75.95;98706.04;225523;1276;138546;-75
2023/09/18 08:14:39;;;;;;;15.60;13.90;;;;;;;23.07;75.41;98705.98;225170;1262;138722;-75
2023/09/18 08:19:41;;;;;;;14.50;13.30;;;;;;;23.24;74.82;98697.05;225290;1266;22587;-74
2023/09/18 08:24:45;;;;;;;16.80;14.40;;;;;;;23.37;74.38;98692.17;225116;1259;138186;-73
2023/09/18 08:29:47;;;;;;;15.70;14.10;;;;;;;23.50;74.20;98695.71;225172;1276;138547;-73
2023/09/18 08:34:49;;;;;;;16.20;14.70;;;;;;;23.65;73.87;98688.41;225071;1260;138714;-73
2023/09/18 08:39:51;;;;;;;16.20;14.80;;;;;;;23.75;73.42;98686.70;225050;1273;138584;-73
2023/09/18 08:44:56;;;;;;;16.10;14.60;;;;;;;23.89;73.11;98681.35;225028;1257;138510;-73
2023/09/18 08:49:59;;;;;;;18.00;16.10;;;;;;;24.02;72.66;98683.34;225229;1268;25250;-73
2023/09/18 08:55:02;;;;;;;17.80;16.10;;;;;;;24.15;72.43;98679.70;225307;1273;138442;-72
2023/09/18 09:00:07;;;;;;;16.50;14.80;;;;;;;24.28;72.23;98669.02;225426;1276;139055;-72
2023/09/18 09:05:09;;;;;;;17.60;15.50;;;;;;;24.44;72.02;98662.11;225431;1257;138646;-77
2023/09/18 09:10:12;;;;;;;17.20;15.70;;;;;;;24.55;71.41;98654.95;225400;1257;138914;-72
2023/09/18 09:15:14;;;;;;;17.40;16.00;;;;;;;24.68;71.06;98643.71;225330;1256;140993;-72
2023/09/18 09:20:18;;;;;;;17.40;15.80;;;;;;;24.82;70.64;98634.83;225341;1262;22593;-72
2023/09/18 09:25:21;;;;;;;17.60;15.80;;;;;;;25.02;70.75;98626.30;225562;1260;137609;-72
2023/09/18 09:30:25;;;;;;;17.20;15.70;;;;;;;25.20;69.87;98621.41;225325;1257;138533;-72
2023/09/18 09:35:30;;;;;;;17.70;16.20;;;;;;;25.37;69.41;98624.14;225296;1277;138264;-73
2023/09/18 09:40:32;;;;;;;18.30;16.70;;;;;;;25.51;68.25;98623.81;225178;1256;137953;-72
2023/09/18 09:45:35;;;;;;;17.20;15.80;;;;;;;25.62;67.49;98620.88;225255;1272;138946;-72
2023/09/18 09:50:46;;;;;;;17.40;15.80;;;;;;;25.74;67.02;98621.60;225442;1257;138042;-71
2023/09/18 09:55:55;;;;;;;16.60;15.20;;;;;;;25.84;66.26;98622.23;225544;1260;22544;-72
2023/09/18 10:01:05;;;;;;;17.90;16.30;;;;;;;25.93;66.19;98617.94;225494;1270;137906;-72
2023/09/18 10:06:10;;;;;;;17.20;15.70;;;;;;;26.02;65.74;98616.94;225564;1274;137748;-72
2023/09/18 10:11:16;;;;;;;17.70;16.30;;;;;;;26.07;64.98;98616.27;225511;1279;138064;-72
2023/09/18 10:16:25;;;;;;;17.00;15.50;;;;;;;26.14;64.78;98617.75;225629;1273;137917;-71
2023/09/18 10:21:48;;;;;;;18.00;16.40;;;;;;;26.26;65.03;98616.27;225364;1272;137908;-72
2023/09/18 10:26:53;;;;;;;17.10;15.70;;;;;;;26.38;64.62;98616.00;225594;1264;138239;-74
2023/09/18 10:31:56;;;;;;;17.00;15.40;;;;;;;26.47;64.49;98608.65;225582;1260;22536;-73
2023/09/18 10:37:00;;;;;;;17.30;15.90;;;;;;;26.56;63.58;98602.32;225342;1260;138988;-73
2023/09/18 10:42:04;;;;;;;16.90;15.50;;;;;;;26.70;63.95;98595.09;225611;1270;138476;-73
2023/09/18 10:47:08;;;;;;;16.60;15.20;;;;;;;26.86;63.55;98591.92;225472;1269;138051;-73
2023/09/18 10:52:13;;;;;;;17.20;15.40;;;;;;;26.97;62.93;98579.88;225540;1270;138681;-73
2023/09/18 10:57:15;;;;;;;16.50;15.10;;;;;;;27.08;62.55;98575.29;225613;1268;138613;-72
2023/09/18 11:02:17;;;;;;;16.70;15.20;;;;;;;27.15;62.35;98571.08;225622;1257;25195;-72
2023/09/18 11:07:21;;;;;;;16.80;15.10;;;;;;;27.17;62.04;98572.64;225434;1257;137827;-73
2023/09/18 11:12:44;;;;;;;16.30;15.00;;;;;;;27.23;61.99;98571.56;225391;1258;137863;-72
2023/09/18 11:18:00;;;;;;;16.00;14.60;;;;;;;27.25;61.44;98566.27;225439;1258;138009;-73
2023/09/18 11:23:14;;;;;;;17.00;15.40;;;;;;;27.25;61.33;98559.54;225449;1257;138262;-73
2023/09/18 11:28:23;;;;;;;16.20;14.80;;;;;;;27.30;61.23;98556.34;225497;1264;137927;-73
2023/09/18 11:33:44;;;;;;;15.00;13.70;;;;;;;27.37;61.06;98551.23;225522;1256;137873;-73
2023/09/18 11:38:54;;;;;;;15.50;14.20;;;;;;;27.35;60.47;98549.77;225413;1267;138219;-73
2023/09/18 11:44:27;;;;;;;14.80;13.50;;;;;;;27.40;61.07;98543.27;225535;1264;23211;-73
2023/09/18 11:49:31;;;;;;;14.30;13.00;;;;;;;27.41;60.22;98536.20;225343;1267;137357;-72
2023/09/18 11:54:35;;;;;;;14.60;12.50;;;;;;;27.47;60.79;98529.16;225550;1258;138053;-76
2023/09/18 11:59:39;;;;;;;13.80;12.50;;;;;;;27.59;60.59;98517.37;225465;1272;138095;-73
2023/09/18 12:04:48;;;;;;;13.70;12.30;;;;;;;27.74;60.33;98509.81;225307;1273;138085;-72
2023/09/18 12:09:50;;;;;;;12.90;11.90;;;;;;;27.81;59.44;98503.95;225525;1273;138046;-72
2023/09/18 12:14:52;;;;;;;15.00;13.70;;;;;;;27.84;58.87;98495.90;225621;1267;137886;-74
2023/09/18 12:19:54;;;;;;;13.10;12.10;;;;;;;27.77;58.94;98495.79;225632;1272;22555;-71
2023/09/18 12:25:13;;;;;;;12.70;11.40;;;;;;;27.61;58.81;98494.56;225619;1276;137739;-72
2023/09/18 12:30:20;;;;;;;11.70;10.70;;;;;;;27.50;58.83;98483.60;225313;1260;137884;-74
2023/09/18 12:35:29;;;;;;;12.30;11.20;;;;;;;27.48;58.82;98476.65;225270;1272;137896;-73
2023/09/18 12:40:34;;;;;;;;;;;;;;;27.53;58.79;98475.47;225088;1266;138089;-73
2023/09/18 12:45:36;;;;;;;11.60;10.60;;;;;;;27.52;58.53;98482.38;225284;1272;124016;-72
2023/09/18 12:50:38;;;;;;;11.00;10.20;;;;;;;27.50;58.18;98481.98;225243;1256;138805;-72
2023/09/18 12:55:42;;;;;;;12.30;11.10;;;;;;;27.53;58.26;98480.18;225369;1272;22564;-71
2023/09/18 13:00:46;;;;;;;12.00;11.00;;;;;;;27.62;58.42;98473.27;225532;1266;137864;-72
2023/09/18 13:05:52;;;;;;;11.40;10.30;;;;;;;27.71;58.43;98466.92;225647;1257;137877;-72
2023/09/18 13:10:54;;;;;;;11.50;10.40;;;;;;;27.75;57.82;98465.11;225489;1277;138025;-72
2023/09/18 13:16:00;;;;;;;10.90;10.00;;;;;;;27.70;57.51;98462.33;225570;1260;138053;-74
2023/09/18 13:21:13;;;;;;;10.70;9.90;;;;;;;27.64;57.68;98459.92;225412;1260;137928;-73
2023/09/18 13:26:15;;;;;;;10.70;9.60;;;;;;;27.57;57.35;98451.99;225610;1272;22541;-72
2023/09/18 13:31:18;;;;;;;10.10;9.20;;;;;;;27.55;57.33;98448.77;225504;1269;137392;-74
2023/09/18 13:36:20;;;;;;;10.80;9.80;;;;;;;27.51;57.42;98439.44;225430;1257;137710;-74
2023/09/18 13:41:22;;;;;;;10.80;9.60;;;;;;;27.45;57.56;98431.55;225280;1270;158079;-74
2023/09/18 13:46:24;;;;;;;10.40;9.50;;;;;;;27.41;57.36;98427.91;225388;1257;137788;-73
2023/09/18 13:51:26;;;;;;;11.40;10.30;;;;;;;27.37;57.23;98420.89;225242;1260;138092;-73
2023/09/18 13:56:29;;;;;;;10.40;9.50;;;;;;;27.45;57.23;98414.46;225428;1264;22540;-72
2023/09/18 14:01:31;;;;;;;13.70;12.30;;;;;;;27.53;57.12;98404.13;225567;1260;137345;-72
2023/09/18 14:06:33;;;;;;;9.90;9.00;;;;;;;27.55;57.02;98396.11;225695;1268;138843;-72
2023/09/18 14:11:37;;;;;;;10.00;9.10;;;;;;;27.46;56.51;98388.00;225588;1275;139291;-73
2023/09/18 14:16:39;;;;;;;10.30;9.50;;;;;;;27.31;56.65;98389.23;225872;1276;138105;-72
2023/09/18 14:21:42;;;;;;;10.70;9.90;;;;;;;27.18;56.68;98386.82;225632;1275;138655;-73
2023/09/18 14:26:44;;;;;;;10.10;9.10;;;;;;;27.01;56.67;98388.60;225810;1275;137971;-72
2023/09/18 14:31:46;;;;;;;10.80;9.80;;;;;;;26.81;56.95;98385.15;225975;1276;22551;-73
2023/09/18 14:36:48;;;;;;;10.10;9.10;;;;;;;26.70;57.02;98380.23;225848;1279;137371;-72
2023/09/18 14:41:50;;;;;;;10.40;9.50;;;;;;;26.57;57.38;98376.05;225632;1276;138148;-72
2023/09/18 14:46:53;;;;;;;11.00;9.60;;;;;;;26.44;57.56;98370.78;225689;1274;139278;-73
2023/09/18 14:51:56;;;;;;;10.90;9.80;;;;;;;26.33;57.80;98372.89;225792;1272;137924;-72
2023/09/18 14:56:58;;;;;;;10.50;9.60;;;;;;;26.25;58.07;98363.17;225640;1272;138027;-72
2023/09/18 15:02:00;;;;;;;10.70;9.80;;;;;;;26.17;58.26;98360.42;225726;1276;22551;-73
2023/09/18 15:07:02;;;;;;;10.00;9.20;;;;;;;26.06;58.22;98349.88;225787;1275;138094;-73
2023/09/18 15:12:07;;;;;;;10.60;9.70;;;;;;;25.95;58.10;98349.80;225845;1276;137809;-72
2023/09/18 15:17:10;;;;;;;10.60;9.50;;;;;;;25.87;58.30;98343.39;225906;1279;137929;-72
2023/09/18 15:22:11;;;;;;;9.60;8.80;;;;;;;25.83;58.22;98339.77;225902;1275;137808;-72
2023/09/18 15:27:13;;;;;;;9.70;8.80;;;;;;;25.81;58.31;98333.72;225548;1279;137524;-73
2023/09/18 15:32:15;;;;;;;9.70;8.60;;;;;;;25.78;58.08;98326.89;225729;1276;22529;-73
2023/09/18 15:37:17;;;;;;;8.40;7.60;;;;;;;25.75;58.13;98326.30;225637;1279;137206;-73
2023/09/18 15:42:19;;;;;;;9.10;8.00;;;;;;;25.69;58.26;98320.23;225822;1276;137544;-73
2023/09/18 15:47:21;;;;;;;9.20;8.30;;;;;;;25.61;58.51;98319.42;225931;1280;137789;-73
2023/09/18 15:52:23;;;;;;;8.70;7.90;;;;;;;25.55;58.73;98322.05;225945;1279;138543;-73
2023/09/18 15:57:29;;;;;;;9.30;7.80;;;;;;;25.47;58.79;98321.98;225796;1279;137536;-73
2023/09/18 16:02:33;;;;;;;9.80;8.60;;;;;;;25.37;59.23;98317.96;225754;1276;22543;-73
2023/09/18 16:07:37;;;;;;;9.50;8.60;;;;;;;25.25;59.27;98317.77;225601;1279;137761;-73
2023/09/18 16:12:39;;;;;;;10.90;9.80;;;;;;;25.12;59.34;98312.96;225843;1280;139146;-73
2023/09/18 16:17:41;;;;;;;11.00;9.00;;;;;;;24.97;59.55;98309.88;225850;1277;138242;-73
2023/09/18 16:22:46;;;;;;;11.00;9.80;;;;;;;24.81;59.67;98308.62;225911;1275;137710;-72
2023/09/18 16:27:48;;;;;;;11.20;10.10;;;;;;;24.62;59.81;98302.04;225852;1267;137862;-72
2023/09/18 16:32:50;;;;;;;10.70;9.70;;;;;;;24.42;60.00;98300.03;225636;1276;137943;-73
2023/09/18 16:37:53;;;;;;;10.90;9.80;;;;;;;24.21;60.14;98296.59;225729;1274;22554;-72
2023/09/18 16:42:55;;;;;;;12.30;10.60;;;;;;;23.99;60.51;98286.20;225835;1272;137393;-72
2023/09/18 16:47:57;;;;;;;11.50;10.40;;;;;;;23.76;60.71;98281.16;225940;1269;137803;-73
2023/09/18 16:52:59;;;;;;;10.50;9.50;;;;;;;23.54;61.03;98282.06;225982;1276;138049;-72
2023/09/18 16:58:01;;;;;;;10.80;9.80;;;;;;;23.32;61.40;98279.77;225906;1279;137762;-72
2023/09/18 17:03:04;;;;;;;11.00;9.60;;;;;;;23.11;61.80;98278.48;225655;1279;137875;-72
2023/09/18 17:08:08;;;;;;;11.10;10.10;;;;;;;22.89;62.19;98276.70;225739;1279;22585;-72
2023/09/18 17:13:10;;;;;;;12.00;10.90;;;;;;;22.67;62.48;98283.01;225647;1279;137566;-72
2023/09/18 17:18:13;;;;;;;11.30;10.10;;;;;;;22.46;62.73;98282.75;225749;1276;137811;-72
2023/09/18 17:23:16;;;;;;;10.80;9.80;;;;;;;22.27;63.17;98292.27;225664;1275;138397;-72
2023/09/18 17:28:18;;;;;;;10.90;10.00;;;;;;;22.09;63.61;98296.79;225756;1272;137762;-72
2023/09/18 17:33:20;;;;;;;11.30;10.30;;;;;;;21.91;63.96;98298.86;225856;1278;138054;-72
2023/09/18 17:38:22;;;;;;;11.40;10.40;;;;;;;21.75;64.32;98298.46;226106;1278;22539;-71
2023/09/18 17:43:24;;;;;;;11.00;10.00;;;;;;;21.60;64.55;98295.59;226029;1278;137646;-72
2023/09/18 17:48:26;;;;;;;10.90;9.90;;;;;;;21.47;64.90;98299.20;225881;1272;138670;-72
2023/09/18 17:53:28;;;;;;;11.40;10.30;;;;;;;21.33;65.20;98302.64;226000;1275;138666;-73
2023/09/18 17:58:30;;;;;;;11.80;10.70;;;;;;;21.21;65.49;98305.16;225975;1276;139195;-74
2023/09/18 18:03:33;;;;;;;12.60;10.90;;;;;;;21.10;65.72;98304.44;225831;1280;138686;-73
2023/09/18 18:08:35;;;;;;;12.20;11.00;;;;;;;21.00;66.14;98304.11;225958;1276;22559;-72
2023/09/18 18:13:37;;;;;;;12.30;11.10;;;;;;;20.92;66.29;98302.42;225747;1280;22540;-72
2023/09/18 18:18:39;;;;;;;14.70;11.90;;;;;;;20.84;66.59;98304.98;225772;1278;138248;-72
2023/09/18 18:23:41;;;;;;;13.50;11.00;;;;;;;20.77;66.71;98307.56;226005;1280;139929;-73
2023/09/18 18:28:43;;;;;;;12.90;10.70;;;;;;;20.70;66.98;98308.77;226019;1268;139053;-73
2023/09/18 18:33:46;;;;;;;13.10;11.50;;;;;;;20.62;67.24;98312.04;225980;1277;138589;-72
2023/09/18 18:38:48;;;;;;;12.80;11.50;;;;;;;20.54;67.34;98308.52;225672;1272;138741;-72
2023/09/18 18:43:50;;;;;;;11.80;10.60;;;;;;;20.47;67.60;98297.81;225742;1274;25981;-72
2023/09/18 18:48:52;;;;;;;14.40;11.50;;;;;;;20.42;67.82;98288.57;225810;1262;138625;-72
2023/09/18 18:53:54;;;;;;;12.90;11.40;;;;;;;20.39;67.84;98288.29;225666;1278;138948;-72
2023/09/18 18:58:56;;;;;;;13.20;11.30;;;;;;;20.38;67.85;98287.04;225626;1262;139289;-72
2023/09/18 19:03:58;;;;;;;11.90;10.60;;;;;;;20.36;67.95;98281.71;225671;1277;139231;-72
2023/09/18 19:09:00;;;;;;;12.20;10.80;;;;;;;20.33;68.11;98270.41;226032;1275;139052;-72
2023/09/18 19:14:02;;;;;;;11.50;10.20;;;;;;;20.30;68.19;98269.35;226135;1275;22540;-72
2023/09/18 19:19:04;;;;;;;11.90;10.70;;;;;;;20.25;68.24;98264.76;226027;1277;138318;-72
2023/09/18 19:24:10;;;;;;;12.20;10.60;;;;;;;20.21;68.40;98260.39;225999;1279;138617;-72
2023/09/18 19:29:15;;;;;;;11.40;10.20;;;;;;;20.18;68.50;98251.85;226014;1280;138856;-72
2023/09/18 19:34:17;;;;;;;12.00;10.60;;;;;;;20.15;68.53;98250.51;226031;1277;138685;-72
2023/09/18 19:39:20;;;;;;;13.40;9.70;;;;;;;20.10;68.54;98244.20;225918;1256;139800;-72
2023/09/18 19:44:22;;;;;;;11.20;10.00;;;;;;;20.05;68.66;98241.29;226089;1277;25326;-72
2023/09/18 19:49:24;;;;;;;13.30;10.80;;;;;;;20.02;68.76;98241.33;226007;1276;138602;-72
2023/09/18 19:54:26;;;;;;;11.70;10.50;;;;;;;19.99;68.86;98239.40;225821;1267;138503;-72
2023/09/18 19:59:28;;;;;;;12.00;10.60;;;;;;;19.97;69.02;98235.52;225694;1279;140085;-72
2023/09/18 20:04:31;;;;;;;12.60;11.30;;;;;;;19.93;69.04;98230.34;225679;1279;138565;-72
2023/09/18 20:09:33;;;;;;;12.40;10.90;;;;;;;19.91;69.26;98227.22;225777;1279;138977;-72
2023/09/18 20:14:41;;;;;;;11.30;10.20;;;;;;;19.90;69.24;98222.70;226155;1279;22556;-73
2023/09/18 20:19:45;;;;;;;12.70;11.20;;;;;;;19.90;69.29;98219.70;226076;1280;22569;-73
2023/09/18 20:24:47;;;;;;;11.50;10.40;;;;;;;19.88;69.43;98217.73;226068;1276;138388;-72
2023/09/18 20:29:49;;;;;;;15.40;10.80;;;;;;;19.85;69.53;98215.04;226082;1275;138740;-74
2023/09/18 20:34:51;;;;;;;12.30;10.80;;;;;;;19.83;69.53;98214.97;226030;1279;138772;-73
2023/09/18 20:39:54;;;;;;;12.60;11.30;;;;;;;19.81;69.47;98215.33;226088;1275;138743;-72
2023/09/18 20:44:57;;;;;;;15.10;10.40;;;;;;;19.79;69.73;98204.33;226049;1276;140131;-73
2023/09/18 20:49:59;;;;;;;13.50;10.50;;;;;;;19.78;69.93;98197.52;226148;1272;22531;-73
2023/09/18 20:55:04;;;;;;;12.90;11.20;;;;;;;19.77;69.93;98200.89;226074;1277;138765;-74
2023/09/18 21:00:09;;;;;;;12.90;11.70;;;;;;;19.74;70.23;98197.33;226113;1280;138405;-73
2023/09/18 21:05:13;;;;;;;13.20;12.00;;;;;;;19.64;70.25;98194.88;226114;1280;138795;-73
2023/09/18 21:10:15;;;;;;;13.80;12.40;;;;;;;19.48;70.44;98192.16;226172;1272;138733;-72
2023/09/18 21:15:18;;;;;;;14.70;13.30;;;;;;;19.34;70.71;98203.84;226070;1280;138689;-73
2023/09/18 21:20:20;;;;;;;14.20;12.80;;;;;;;19.26;71.05;98202.58;226137;1275;22546;-73
2023/09/18 21:25:22;;;;;;;13.60;12.30;;;;;;;19.22;71.28;98201.94;226003;1280;138353;-72
2023/09/18 21:30:26;;;;;;;13.90;12.50;;;;;;;19.22;71.40;98200.23;226066;1280;138990;-73
2023/09/18 21:35:28;;;;;;;14.60;13.00;;;;;;;19.21;71.55;98195.30;226061;1275;138834;-73
2023/09/18 21:40:30;;;;;;;16.30;13.50;;;;;;;19.18;71.65;98191.14;225927;1277;138818;-72
2023/09/18 21:45:32;;;;;;;14.40;12.60;;;;;;;19.14;71.77;98189.09;226102;1275;140041;-72
2023/09/18 21:50:34;;;;;;;14.40;12.80;;;;;;;19.09;71.95;98184.62;226145;1275;23248;-72
2023/09/18 21:55:42;;;;;;;15.60;12.50;;;;;;;19.05;72.01;98181.85;226035;1278;138431;-72
2023/09/18 22:01:05;;;;;;;15.60;14.00;;;;;;;19.01;72.30;98176.46;226086;1276;138580;-72
2023/09/18 22:06:08;;;;;;;15.30;13.80;;;;;;;18.99;72.35;98167.35;226098;1275;139511;-72
2023/09/18 22:11:10;;;;;;;15.70;13.40;;;;;;;18.92;72.45;98162.75;226035;1280;138689;-72
2023/09/18 22:16:13;;;;;;;14.20;12.80;;;;;;;18.87;72.80;98159.38;226092;1280;138658;-73
2023/09/18 22:21:16;;;;;;;17.20;15.00;;;;;;;18.89;73.19;98150.94;226010;1275;139206;-72
2023/09/18 22:26:18;;;;;;;16.10;14.50;;;;;;;18.89;73.11;98146.13;226168;1273;25224;-72
2023/09/18 22:31:20;;;;;;;17.50;14.80;;;;;;;18.92;73.33;98145.29;225792;1280;139242;-71
2023/09/18 22:36:22;;;;;;;15.10;13.50;;;;;;;18.95;73.10;98142.96;226050;1278;138659;-72
2023/09/18 22:41:29;;;;;;;14.10;12.60;;;;;;;18.87;72.98;98135.45;225943;1278;138703;-72
2023/09/18 22:47:09;;;;;;;15.50;14.00;;;;;;;18.75;72.91;98127.98;226077;1275;138594;-73
2023/09/18 22:52:44;;;;;;;15.80;14.00;;;;;;;18.62;73.22;98126.02;226010;1276;139011;-72